createdAt,value
2018-08-25T00:00:43.092Z,82.30
2018-08-25T00:03:15.612Z,81.85
2018-08-25T00:05:48.323Z,83.51
2018-08-25T00:08:20.305Z,82.73
2018-08-25T00:10:53.404Z,81.81
2018-08-25T00:13:26.100Z,82.18
2018-08-25T00:16:00.227Z,82.77
2018-08-25T00:18:32.130Z,82.96
2018-08-25T00:21:05.209Z,82.34
2018-08-25T00:23:36.218Z,82.12
2018-08-25T00:26:15.951Z,82.28
2018-08-25T00:28:48.899Z,82.90
2018-08-25T00:31:23.738Z,82.88
2018-08-25T00:34:00.249Z,83.37
2018-08-25T00:36:36.017Z,83.04
2018-08-25T00:39:14.336Z,83.40
2018-08-25T00:41:52.496Z,84.01
2018-08-25T00:44:26.452Z,82.85
2018-08-25T00:46:56.526Z,83.37
2018-08-25T00:49:26.803Z,83.55
2018-08-25T00:51:58.517Z,84.18
2018-08-25T00:54:29.304Z,84.43
2018-08-25T00:57:00.274Z,83.41
2018-08-25T00:59:32.115Z,83.26
2018-08-25T01:02:04.664Z,83.70
2018-08-25T01:04:40.033Z,83.51
2018-08-25T01:07:10.248Z,83.27
2018-08-25T01:09:42.889Z,82.73
2018-08-25T01:12:15.913Z,83.97
2018-08-25T01:14:46.237Z,83.46
2018-08-25T01:17:20.283Z,82.45
2018-08-25T01:19:50.436Z,83.32
2018-08-25T01:22:21.472Z,83.85
2018-08-25T01:24:54.247Z,83.93
2018-08-25T01:27:24.979Z,83.40
2018-08-25T01:29:55.114Z,81.67
2018-08-25T01:32:25.826Z,83.08
2018-08-25T01:34:56.268Z,82.26
2018-08-25T01:37:29.198Z,82.58
2018-08-25T01:40:01.118Z,83.58
2018-08-25T01:42:32.990Z,84.03
2018-08-25T01:45:03.784Z,83.91
2018-08-25T01:47:35.148Z,84.04
2018-08-25T01:50:05.409Z,83.84
2018-08-25T01:52:38.412Z,84.23
2018-08-25T01:55:09.359Z,83.97
2018-08-25T01:57:42.135Z,84.82
2018-08-25T02:00:13.286Z,84.08
2018-08-25T02:02:43.481Z,84.14
2018-08-25T02:05:14.945Z,84.65
2018-08-25T02:07:46.551Z,84.68
2018-08-25T02:10:17.525Z,84.40
2018-08-25T02:12:48.370Z,84.37
2018-08-25T02:15:19.373Z,84.29
2018-08-25T02:17:53.435Z,84.48
2018-08-25T02:20:25.788Z,84.04
2018-08-25T02:22:59.332Z,82.73
2018-08-25T02:25:35.228Z,83.17
2018-08-25T02:28:06.068Z,82.21
2018-08-25T02:30:39.381Z,81.98
2018-08-25T02:33:12.723Z,82.22
2018-08-25T02:35:44.596Z,82.11
2018-08-25T02:38:19.238Z,83.07
2018-08-25T02:40:50.272Z,83.11
2018-08-25T02:43:24.208Z,83.53
2018-08-25T02:45:55.736Z,83.42
2018-08-25T02:48:27.249Z,83.79
2018-08-25T02:50:57.997Z,82.89
2018-08-25T02:53:28.401Z,81.40
2018-08-25T02:56:00.984Z,81.69
2018-08-25T02:58:33.198Z,80.66
2018-08-25T03:01:02.926Z,81.84
2018-08-25T03:03:34.522Z,81.43
2018-08-25T03:06:04.543Z,82.46
2018-08-25T03:08:34.907Z,81.93
2018-08-25T03:11:05.535Z,81.25
2018-08-25T03:13:36.611Z,81.76
2018-08-25T03:16:08.181Z,81.83
2018-08-25T03:18:38.554Z,81.57
2018-08-25T03:21:09.076Z,81.56
2018-08-25T03:23:41.201Z,81.66
2018-08-25T03:26:13.657Z,80.92
2018-08-25T03:28:44.001Z,79.88
2018-08-25T03:31:19.609Z,80.57
2018-08-25T03:37:00.744Z,80.45
2018-08-25T03:39:34.029Z,81.21
2018-08-25T03:42:05.500Z,80.62
2018-08-25T03:44:38.337Z,81.23
2018-08-25T03:47:10.119Z,80.44
2018-08-25T03:49:41.965Z,80.59
2018-08-25T03:52:13.653Z,80.42
2018-08-25T03:54:46.448Z,80.13
2018-08-25T03:57:18.691Z,79.56
2018-08-25T03:59:50.689Z,80.03
2018-08-25T04:02:23.545Z,80.21
2018-08-25T04:04:56.524Z,81.18
2018-08-25T04:07:31.904Z,80.25
2018-08-25T04:10:03.735Z,79.56
2018-08-25T04:12:34.846Z,79.43
2018-08-25T04:15:06.204Z,79.05
2018-08-25T04:17:40.359Z,79.29
2018-08-25T04:20:19.509Z,79.93
2018-08-25T04:22:54.380Z,80.40
2018-08-25T04:25:29.077Z,80.22
2018-08-25T04:28:02.243Z,79.68
2018-08-25T04:30:34.612Z,79.87
2018-08-25T04:33:09.200Z,79.28
2018-08-25T04:35:41.060Z,79.88
2018-08-25T04:38:17.321Z,78.77
2018-08-25T04:40:52.029Z,79.42
2018-08-25T04:43:22.237Z,78.08
2018-08-25T04:45:52.379Z,77.68
2018-08-25T04:48:23.018Z,79.12
2018-08-25T04:50:54.781Z,78.36
2018-08-25T04:53:26.111Z,78.39
2018-08-25T04:55:58.270Z,77.28
2018-08-25T04:58:29.760Z,78.19
2018-08-25T05:01:04.022Z,78.71
2018-08-25T05:03:34.184Z,78.47
2018-08-25T05:06:05.133Z,79.63
2018-08-25T05:08:35.301Z,78.63
2018-08-25T05:11:07.239Z,79.17
2018-08-25T05:13:38.137Z,77.02
2018-08-25T05:16:08.222Z,78.01
2018-08-25T05:18:40.909Z,78.06
2018-08-25T05:21:12.924Z,78.24
2018-08-25T05:23:45.367Z,78.31
2018-08-25T05:26:17.835Z,78.47
2018-08-25T05:28:52.714Z,77.32
2018-08-25T05:31:22.964Z,77.63
2018-08-25T05:33:55.358Z,78.40
2018-08-25T05:36:27.014Z,78.08
2018-08-25T05:39:00.948Z,77.48
2018-08-25T05:41:32.198Z,77.40
2018-08-25T05:44:03.646Z,78.14
2018-08-25T05:46:34.553Z,78.91
2018-08-25T05:49:05.187Z,77.76
2018-08-25T05:51:37.660Z,76.56
2018-08-25T05:54:08.499Z,76.96
2018-08-25T05:56:38.692Z,77.68
2018-08-25T05:59:09.021Z,77.98
2018-08-25T06:01:39.646Z,76.56
2018-08-25T06:04:09.914Z,75.99
2018-08-25T06:06:41.528Z,75.81
2018-08-25T06:09:14.026Z,76.44
2018-08-25T06:11:46.053Z,76.13
2018-08-25T06:14:18.063Z,75.69
2018-08-25T06:16:48.586Z,75.14
2018-08-25T06:19:20.680Z,74.79
2018-08-25T06:21:51.864Z,74.41
2018-08-25T06:24:23.676Z,74.03
2018-08-25T06:26:53.868Z,74.73
2018-08-25T06:29:24.089Z,74.67
2018-08-25T06:31:55.971Z,75.50
2018-08-25T06:34:26.363Z,75.11
2018-08-25T06:38:54.678Z,74.16
2018-08-25T06:41:27.918Z,73.23
2018-08-25T06:43:58.898Z,73.18
2018-08-25T06:46:30.860Z,74.19
2018-08-25T06:49:02.254Z,73.17
2018-08-25T06:51:33.351Z,73.03
2018-08-25T06:54:05.310Z,72.81
2018-08-25T06:56:48.144Z,72.94
2018-08-25T06:59:22.822Z,72.89
2018-08-25T07:01:55.445Z,73.14
2018-08-25T07:04:27.070Z,72.09
2018-08-25T07:06:58.263Z,72.37
2018-08-25T07:09:29.056Z,73.46
2018-08-25T07:12:00.099Z,72.51
2018-08-25T07:14:31.934Z,72.09
2018-08-25T07:17:02.072Z,71.51
2018-08-25T07:19:33.317Z,71.12
2018-08-25T07:22:06.386Z,71.42
2018-08-25T07:24:37.401Z,71.49
2018-08-25T07:27:09.118Z,71.44
2018-08-25T07:29:42.757Z,72.30
2018-08-25T07:32:13.189Z,70.31
2018-08-25T07:34:44.429Z,69.38
2018-08-25T07:37:14.706Z,69.84
2018-08-25T07:39:46.919Z,69.69
2018-08-25T07:42:18.821Z,69.98
2018-08-25T07:44:49.381Z,69.89
2018-08-25T07:47:19.661Z,70.40
2018-08-25T07:49:55.514Z,69.21
2018-08-25T07:52:27.177Z,68.73
2018-08-25T07:54:57.528Z,68.18
2018-08-25T07:57:28.873Z,68.50
2018-08-25T08:01:17.392Z,68.46
2018-08-25T08:03:48.823Z,68.21
2018-08-25T08:06:20.216Z,68.08
2018-08-25T08:08:51.802Z,68.32
2018-08-25T08:11:23.756Z,66.90
2018-08-25T08:13:53.929Z,66.53
2018-08-25T08:16:24.889Z,66.77
2018-08-25T08:18:55.196Z,68.56
2018-08-25T08:21:25.838Z,68.14
2018-08-25T08:23:58.121Z,69.23
2018-08-25T08:26:28.319Z,69.11
2018-08-25T08:28:59.623Z,69.63
2018-08-25T08:31:30.114Z,68.23
2018-08-25T08:34:00.369Z,69.91
2018-08-25T08:36:31.772Z,69.72
2018-08-25T08:39:02.092Z,72.41
2018-08-25T08:41:34.112Z,74.62
2018-08-25T08:44:28.914Z,70.60
2018-08-25T08:47:00.627Z,72.80
2018-08-25T08:49:30.785Z,71.66
2018-08-25T08:52:01.596Z,74.37
2018-08-25T08:54:31.890Z,73.61
2018-08-25T08:57:04.387Z,71.54
2018-08-25T08:59:40.427Z,73.46
2018-08-25T09:02:16.439Z,73.23
2018-08-25T09:04:49.111Z,74.29
2018-08-25T09:07:24.022Z,75.72
2018-08-25T09:09:57.209Z,73.62
2018-08-25T09:12:28.833Z,75.69
2018-08-25T09:15:07.611Z,75.66
2018-08-25T09:17:42.370Z,74.28
2018-08-25T09:26:15.484Z,76.03
2018-08-25T09:30:45.790Z,76.79
2018-08-25T09:33:31.698Z,77.83
2018-08-25T09:36:03.953Z,76.70
2018-08-25T09:38:34.882Z,76.59
2018-08-25T09:41:10.264Z,77.17
2018-08-25T09:43:41.373Z,77.29
2018-08-25T09:46:15.081Z,75.77
2018-08-25T09:48:45.188Z,75.49
2018-08-25T09:51:16.512Z,73.00
2018-08-25T09:53:46.705Z,74.57
2018-08-25T09:56:16.873Z,74.12
2018-08-25T09:58:50.149Z,74.78
2018-08-25T10:01:27.184Z,74.42
2018-08-25T10:03:59.234Z,73.23
2018-08-25T10:06:38.838Z,73.48
2018-08-25T10:09:12.887Z,72.65
2018-08-25T10:11:54.923Z,73.29
2018-08-25T10:14:35.281Z,72.87
2018-08-25T10:17:14.066Z,73.34
2018-08-25T10:19:47.423Z,73.29
2018-08-25T10:22:28.965Z,71.48
2018-08-25T10:27:41.963Z,70.67
2018-08-25T10:30:15.897Z,71.21
2018-08-25T10:32:49.030Z,69.51
2018-08-25T10:35:19.550Z,69.93
2018-08-25T10:37:55.845Z,70.15
2018-08-25T10:40:26.209Z,70.96
2018-08-25T10:42:58.520Z,69.50
2018-08-25T10:45:28.973Z,68.46
2018-08-25T10:48:00.516Z,70.13
2018-08-25T10:50:31.370Z,70.88
2018-08-25T10:53:03.679Z,72.92
2018-08-25T10:55:37.128Z,73.11
2018-08-25T10:58:07.441Z,72.25
2018-08-25T11:00:38.466Z,72.14
2018-08-25T11:03:09.032Z,72.10
2018-08-25T11:05:40.166Z,70.21
2018-08-25T11:08:11.233Z,71.21
2018-08-25T11:10:45.440Z,70.42
2018-08-25T11:13:15.677Z,71.62
2018-08-25T11:15:46.565Z,70.50
2018-08-25T11:18:17.505Z,69.70
2018-08-25T11:23:46.606Z,71.10
2018-08-25T11:26:25.767Z,72.48
2018-08-25T11:42:08.411Z,76.34
2018-08-25T11:44:40.907Z,73.21
2018-08-25T11:47:16.067Z,74.59
2018-08-25T11:49:48.190Z,75.68
2018-08-25T11:52:20.344Z,74.21
2018-08-25T11:54:52.154Z,75.91
2018-08-25T11:57:23.334Z,74.40
2018-08-25T11:59:56.595Z,72.20
2018-08-25T12:02:28.108Z,73.06
2018-08-25T12:04:58.426Z,74.42
2018-08-25T12:07:28.570Z,75.18
2018-08-25T12:09:58.767Z,76.28
2018-08-25T12:12:29.619Z,74.91
2018-08-25T12:15:00.836Z,73.40
2018-08-25T12:17:36.991Z,74.99
2018-08-25T12:20:10.385Z,74.69
2018-08-25T12:25:46.181Z,79.51
2018-08-25T12:28:17.221Z,81.27
2018-08-25T12:30:47.607Z,81.39
2018-08-25T12:33:20.278Z,82.46
2018-08-25T12:35:53.943Z,81.62
2018-08-25T12:38:28.462Z,80.84
2018-08-25T12:40:58.820Z,80.74
2018-08-25T12:43:29.403Z,81.57
2018-08-25T12:45:59.878Z,82.30
2018-08-25T12:48:30.055Z,82.63
2018-08-25T12:51:02.587Z,81.74
2018-08-25T12:53:33.761Z,81.92
2018-08-25T12:56:05.461Z,80.21
2018-08-25T12:58:37.599Z,80.30
2018-08-25T13:01:08.324Z,80.87
2018-08-25T13:03:39.637Z,80.73
2018-08-25T13:06:10.440Z,80.05
2018-08-25T13:08:40.910Z,79.59
2018-08-25T13:11:51.051Z,79.34
2018-08-25T13:14:21.937Z,78.75
2018-08-25T13:16:52.363Z,79.85
2018-08-25T13:19:22.885Z,81.30
2018-08-25T13:21:53.517Z,80.56
2018-08-25T13:24:23.852Z,82.45
2018-08-25T13:26:54.044Z,82.16
2018-08-25T13:29:24.982Z,83.32
2018-08-25T13:31:55.685Z,81.07
2018-08-25T13:34:26.806Z,81.43
2018-08-25T13:36:57.804Z,81.09
2018-08-25T13:39:27.995Z,80.48
2018-08-25T13:42:02.696Z,80.82
2018-08-25T13:44:33.199Z,79.78
2018-08-25T13:47:04.141Z,77.56
2018-08-25T13:49:34.956Z,78.37
2018-08-25T13:52:06.904Z,78.10
2018-08-25T13:54:38.364Z,78.58
2018-08-25T13:57:09.712Z,77.91
2018-08-25T13:59:40.660Z,78.12
2018-08-25T14:02:11.913Z,80.08
2018-08-25T14:04:43.040Z,79.05
2018-08-25T14:07:13.054Z,78.41
2018-08-25T14:09:44.883Z,78.01
2018-08-25T14:12:15.804Z,78.27
2018-08-25T14:14:46.506Z,78.38
2018-08-25T14:17:18.880Z,79.95
2018-08-25T14:19:49.206Z,79.63
2018-08-25T14:22:19.609Z,82.16
2018-08-25T14:24:50.146Z,82.30
2018-08-25T14:27:21.462Z,83.07
2018-08-25T14:29:51.920Z,82.79
2018-08-25T14:32:22.418Z,83.14
2018-08-25T14:34:52.918Z,83.32
2018-08-25T14:37:25.049Z,82.77
2018-08-25T14:39:55.460Z,83.10
2018-08-25T14:42:27.450Z,84.41
2018-08-25T14:44:58.445Z,83.23
2018-08-25T14:47:30.015Z,81.77
2018-08-25T14:50:00.225Z,82.18
2018-08-25T14:52:30.480Z,82.45
2018-08-25T14:55:00.664Z,83.29
2018-08-25T14:57:31.200Z,82.22
2018-08-25T15:00:02.450Z,82.10
2018-08-25T15:04:54.019Z,81.02
2018-08-25T15:07:25.153Z,81.81
2018-08-25T15:09:55.857Z,80.85
2018-08-25T15:12:26.197Z,80.75
2018-08-25T15:14:57.325Z,81.68
2018-08-25T15:17:28.790Z,80.73
2018-08-25T15:20:01.347Z,80.67
2018-08-25T15:22:32.383Z,79.68
2018-08-25T15:25:03.954Z,79.72
2018-08-25T15:27:34.518Z,79.93
2018-08-25T15:30:07.994Z,81.21
2018-08-25T15:32:40.663Z,81.90
2018-08-25T15:35:10.889Z,81.94
2018-08-25T15:37:42.565Z,81.21
2018-08-25T15:40:13.558Z,82.36
2018-08-25T15:42:43.889Z,82.32
2018-08-25T15:54:52.683Z,80.65
2018-08-25T15:57:36.995Z,80.30
2018-08-25T16:03:53.065Z,77.98
2018-08-25T16:06:26.053Z,76.23
2018-08-25T16:08:56.433Z,76.78
2018-08-25T16:11:28.021Z,75.77
2018-08-25T16:14:00.360Z,74.84
2018-08-25T16:16:30.940Z,76.38
2018-08-25T16:19:01.391Z,76.03
2018-08-25T16:21:35.070Z,77.26
2018-08-25T16:24:06.212Z,76.48
2018-08-25T16:26:38.556Z,75.60
2018-08-25T16:29:09.048Z,75.05
2018-08-25T16:31:41.937Z,76.41
2018-08-25T16:34:14.550Z,76.37
2018-08-25T16:40:09.282Z,76.87
2018-08-25T16:54:55.765Z,75.19
2018-08-25T17:03:54.060Z,74.43
2018-08-25T17:06:35.684Z,73.61
2018-08-25T17:09:22.678Z,73.41
2018-08-25T17:12:19.348Z,72.68
2018-08-25T17:15:18.105Z,72.49
2018-08-25T18:03:05.880Z,75.29
2018-08-25T18:30:43.806Z,77.28
2018-08-25T18:33:14.672Z,76.57
2018-08-25T18:35:48.083Z,76.70
2018-08-25T18:38:19.887Z,77.59
2018-08-25T18:40:56.451Z,78.22
2018-08-25T18:43:27.330Z,77.95
2018-08-25T18:45:57.699Z,77.93
2018-08-25T18:48:29.997Z,78.00
2018-08-25T18:51:01.603Z,78.47
2018-08-25T18:53:34.961Z,77.91
2018-08-25T18:59:18.739Z,78.72
2018-08-25T19:01:54.129Z,78.90
2018-08-25T19:04:30.851Z,78.33
2018-08-25T19:07:01.434Z,79.39
2018-08-25T19:09:39.908Z,78.95
2018-08-25T19:12:11.666Z,78.58
2018-08-25T19:14:43.018Z,78.71
2018-08-25T19:17:14.452Z,78.63
2018-08-25T19:19:47.023Z,78.61
2018-08-25T19:22:18.025Z,78.23
2018-08-25T19:24:49.902Z,79.21
2018-08-25T19:27:22.841Z,78.02
2018-08-25T19:30:13.313Z,78.27
2018-08-25T19:32:44.744Z,78.38
2018-08-25T19:35:16.774Z,79.02
2018-08-25T19:37:47.712Z,79.71
2018-08-25T19:40:18.824Z,79.73
2018-08-25T19:42:49.110Z,81.05
2018-08-25T19:45:19.752Z,80.30
2018-08-25T19:47:52.199Z,80.93
2018-08-25T19:50:23.077Z,81.78
2018-08-25T19:52:58.038Z,82.26
2018-08-25T19:55:31.045Z,81.83
2018-08-25T19:58:03.061Z,82.67
2018-08-25T20:00:36.923Z,82.67
2018-08-25T20:03:09.743Z,83.75
2018-08-25T20:05:40.687Z,83.87
2018-08-25T20:08:33.026Z,83.45
2018-08-25T20:11:11.635Z,83.71
2018-08-25T20:13:46.132Z,84.33
2018-08-25T20:16:23.637Z,83.13
2018-08-25T20:18:54.968Z,82.64
2018-08-25T20:21:32.482Z,82.98
2018-08-25T20:24:03.653Z,82.23
2018-08-25T21:11:41.352Z,81.21
2018-08-25T21:14:14.209Z,80.72
2018-08-25T21:16:47.211Z,81.23
2018-08-25T21:19:19.686Z,80.52
2018-08-25T21:21:52.933Z,78.88
2018-08-25T21:24:37.498Z,78.53
2018-08-25T21:27:13.109Z,78.39
2018-08-25T21:29:52.826Z,79.29
2018-08-25T21:32:23.992Z,79.06
2018-08-25T21:34:54.966Z,78.04
2018-08-25T21:37:25.919Z,78.52
2018-08-25T21:43:08.132Z,78.95
2018-08-25T21:45:39.327Z,78.62
2018-08-25T21:48:10.062Z,78.95
2018-08-25T21:50:40.317Z,78.50
2018-08-25T21:53:11.670Z,78.73
2018-08-25T21:55:41.853Z,78.92
2018-08-25T21:58:12.674Z,79.63
2018-08-25T22:00:47.859Z,80.36
2018-08-25T22:03:20.237Z,79.27
2018-08-25T22:05:54.142Z,80.21
2018-08-25T22:08:30.078Z,80.12
2018-08-25T22:11:00.664Z,80.36
2018-08-25T22:13:31.433Z,79.91
2018-08-25T22:16:02.324Z,80.61
2018-08-25T22:18:34.363Z,80.65
2018-08-25T22:21:07.154Z,80.52
2018-08-25T22:23:37.265Z,80.11
2018-08-25T22:26:07.587Z,79.50
2018-08-25T22:28:37.764Z,79.33
2018-08-25T22:31:08.751Z,80.48
2018-08-25T22:33:39.021Z,79.68
2018-08-25T22:36:09.234Z,79.28
2018-08-25T22:38:40.854Z,79.54
2018-08-25T22:41:11.102Z,79.46
2018-08-25T22:43:41.330Z,78.60
2018-08-25T22:46:11.572Z,80.03
2018-08-25T22:49:53.931Z,79.09
2018-08-25T22:52:30.551Z,80.36
2018-08-25T22:55:03.544Z,79.71
2018-08-25T22:57:36.105Z,79.35
2018-08-25T23:00:07.196Z,79.15
2018-08-25T23:02:37.410Z,80.68
2018-08-25T23:05:07.701Z,79.75
2018-08-25T23:07:38.485Z,80.46
2018-08-25T23:10:09.486Z,80.41
2018-08-25T23:12:42.244Z,79.62
2018-08-25T23:15:12.730Z,80.60
2018-08-25T23:17:43.117Z,81.13
2018-08-25T23:20:13.435Z,80.81
2018-08-25T23:22:43.615Z,80.58
2018-08-25T23:25:15.227Z,80.65
2018-08-25T23:27:46.301Z,79.93
2018-08-25T23:30:18.483Z,79.42
2018-08-25T23:32:53.270Z,80.27
2018-08-25T23:35:23.728Z,79.81
2018-08-25T23:37:53.732Z,79.52
2018-08-25T23:40:27.009Z,79.15
2018-08-25T23:42:58.593Z,79.15
2018-08-25T23:45:30.626Z,79.31
2018-08-25T23:48:00.820Z,78.81
2018-08-25T23:50:30.919Z,79.28
2018-08-25T23:53:02.426Z,78.84
2018-08-25T23:55:33.256Z,79.45
2018-08-25T23:58:04.305Z,78.95
